createdAt,value
2018-04-29T00:00:56.208Z,74.64
2018-04-29T00:03:24.618Z,74.85
2018-04-29T00:05:53.037Z,75.03
2018-04-29T00:08:22.218Z,76.01
2018-04-29T00:10:51.639Z,76.52
2018-04-29T00:13:20.043Z,77.08
2018-04-29T00:15:49.202Z,77.24
2018-04-29T00:18:17.574Z,77.24
2018-04-29T00:20:45.974Z,78.03
2018-04-29T00:23:14.374Z,78.04
2018-04-29T00:25:42.757Z,78.67
2018-04-29T00:28:11.161Z,78.76
2018-04-29T00:30:40.423Z,79.43
2018-04-29T00:33:08.827Z,79.51
2018-04-29T00:35:37.211Z,79.00
2018-04-29T00:38:05.582Z,79.92
2018-04-29T00:40:33.952Z,80.13
2018-04-29T00:43:02.353Z,80.44
2018-04-29T00:45:30.737Z,80.72
2018-04-29T00:47:59.163Z,81.83
2018-04-29T00:50:27.568Z,81.90
2018-04-29T00:52:55.942Z,82.06
2018-04-29T00:55:24.322Z,82.29
2018-04-29T00:57:52.712Z,82.56
2018-04-29T01:00:21.093Z,82.89
2018-04-29T01:02:49.604Z,82.85
2018-04-29T01:05:18.009Z,82.39
2018-04-29T01:10:10.991Z,82.72
2018-04-29T01:12:39.365Z,83.15
2018-04-29T01:15:07.747Z,83.57
2018-04-29T01:17:36.137Z,83.50
2018-04-29T01:20:04.574Z,84.17
2018-04-29T01:22:32.978Z,84.38
2018-04-29T01:25:01.356Z,84.44
2018-04-29T01:27:29.723Z,84.29
2018-04-29T01:29:58.094Z,84.81
2018-04-29T01:32:26.463Z,84.85
2018-04-29T01:34:54.832Z,85.26
2018-04-29T01:37:24.015Z,85.32
2018-04-29T01:39:52.437Z,85.28
2018-04-29T01:42:20.850Z,85.58
2018-04-29T01:44:49.237Z,85.72
2018-04-29T01:47:17.593Z,85.70
2018-04-29T01:49:45.984Z,85.64
2018-04-29T01:52:14.363Z,85.29
2018-04-29T01:54:42.770Z,85.39
2018-04-29T01:57:11.182Z,85.70
2018-04-29T01:59:39.543Z,85.96
2018-04-29T02:02:07.953Z,86.22
2018-04-29T02:04:36.344Z,85.81
2018-04-29T02:07:05.502Z,86.00
2018-04-29T02:09:33.887Z,86.11
2018-04-29T02:12:02.258Z,86.56
2018-04-29T02:14:30.663Z,87.04
2018-04-29T02:16:59.057Z,86.97
2018-04-29T02:19:27.443Z,86.37
2018-04-29T02:21:55.813Z,86.07
2018-04-29T02:24:24.204Z,86.48
2018-04-29T02:26:52.581Z,86.69
2018-04-29T02:29:21.009Z,87.00
2018-04-29T02:31:50.161Z,87.37
2018-04-29T02:34:19.357Z,87.30
2018-04-29T02:36:47.729Z,87.31
2018-04-29T02:39:16.100Z,87.57
2018-04-29T02:41:44.483Z,88.02
2018-04-29T02:44:12.868Z,88.16
2018-04-29T02:46:41.257Z,88.18
2018-04-29T02:49:09.626Z,88.38
2018-04-29T02:51:38.017Z,88.55
2018-04-29T02:54:06.494Z,88.43
2018-04-29T02:56:34.914Z,88.40
2018-04-29T02:59:03.305Z,88.51
2018-04-29T03:01:31.671Z,88.99
2018-04-29T03:04:00.067Z,88.77
2018-04-29T03:06:28.458Z,88.67
2018-04-29T03:08:56.877Z,88.92
2018-04-29T03:11:25.303Z,89.31
2018-04-29T03:13:53.694Z,89.46
2018-04-29T03:16:22.081Z,89.54
2018-04-29T03:18:50.470Z,89.58
2018-04-29T03:21:19.006Z,89.77
2018-04-29T03:23:47.545Z,90.02
2018-04-29T03:26:16.622Z,90.17
2018-04-29T03:28:45.826Z,90.47
2018-04-29T03:31:14.183Z,90.49
2018-04-29T03:33:43.395Z,90.36
2018-04-29T03:36:11.795Z,90.25
2018-04-29T03:38:40.926Z,90.27
2018-04-29T03:41:09.336Z,90.78
2018-04-29T03:43:38.457Z,90.66
2018-04-29T03:46:06.913Z,90.60
2018-04-29T03:48:36.082Z,90.52
2018-04-29T03:51:04.445Z,90.66
2018-04-29T03:53:32.874Z,90.71
2018-04-29T03:56:02.065Z,90.96
2018-04-29T04:01:53.742Z,91.25
2018-04-29T04:04:22.137Z,91.52
2018-04-29T04:06:50.535Z,91.24
2018-04-29T04:09:18.934Z,91.07
2018-04-29T04:11:47.307Z,91.07
2018-04-29T04:14:15.785Z,91.03
2018-04-29T04:16:44.170Z,91.06
2018-04-29T04:19:12.570Z,91.24
2018-04-29T04:21:41.748Z,91.29
2018-04-29T04:24:10.646Z,91.28
2018-04-29T04:26:39.026Z,91.06
2018-04-29T04:29:07.418Z,90.73
2018-04-29T04:31:35.785Z,90.88
2018-04-29T04:34:04.246Z,90.60
2018-04-29T04:36:32.595Z,89.71
2018-04-29T04:39:01.752Z,90.11
2018-04-29T04:41:30.134Z,90.35
2018-04-29T04:43:58.564Z,90.05
2018-04-29T04:46:26.942Z,89.93
2018-04-29T04:48:56.080Z,88.99
2018-04-29T04:51:24.453Z,89.15
2018-04-29T04:53:52.853Z,89.49
2018-04-29T04:56:21.524Z,88.88
2018-04-29T04:58:49.928Z,88.69
2018-04-29T05:01:18.308Z,88.70
2018-04-29T05:03:46.690Z,88.71
2018-04-29T05:06:15.076Z,86.44
2018-04-29T05:08:43.458Z,84.68
2018-04-29T05:11:11.834Z,84.23
2018-04-29T05:13:40.254Z,84.86
2018-04-29T05:16:08.693Z,83.68
2018-04-29T05:18:37.087Z,84.40
2018-04-29T05:21:05.487Z,84.35
2018-04-29T05:23:33.934Z,84.42
2018-04-29T05:26:02.340Z,82.37
2018-04-29T05:28:30.757Z,82.65
2018-04-29T05:30:59.145Z,82.98
2018-04-29T05:33:28.306Z,83.06
2018-04-29T05:35:56.714Z,83.08
2018-04-29T05:38:25.095Z,83.36
2018-04-29T05:40:53.463Z,83.78
2018-04-29T05:43:22.645Z,83.05
2018-04-29T05:45:51.057Z,83.25
2018-04-29T05:48:19.440Z,83.15
2018-04-29T05:50:47.830Z,83.40
2018-04-29T05:53:16.218Z,82.70
2018-04-29T05:55:44.730Z,83.38
2018-04-29T05:58:13.933Z,81.92
2018-04-29T06:00:43.114Z,80.67
2018-04-29T06:03:12.295Z,81.57
2018-04-29T06:05:40.738Z,81.79
2018-04-29T06:08:09.141Z,81.66
2018-04-29T06:10:37.553Z,81.73
2018-04-29T06:13:05.936Z,80.88
2018-04-29T06:15:34.366Z,82.11
2018-04-29T06:18:02.748Z,81.18
2018-04-29T06:20:31.212Z,81.26
2018-04-29T06:22:59.560Z,81.79
2018-04-29T06:25:27.978Z,80.58
2018-04-29T06:27:57.129Z,81.34
2018-04-29T06:30:26.310Z,80.03
2018-04-29T06:32:54.717Z,79.55
2018-04-29T06:35:23.126Z,78.85
2018-04-29T06:37:51.527Z,79.13
2018-04-29T06:40:20.797Z,78.63
2018-04-29T06:42:49.206Z,77.79
2018-04-29T06:45:17.593Z,80.10
2018-04-29T06:47:45.992Z,79.08
2018-04-29T06:50:15.165Z,79.08
2018-04-29T06:52:43.606Z,79.05
2018-04-29T06:55:12.034Z,80.23
2018-04-29T06:57:40.406Z,80.12
2018-04-29T07:00:08.833Z,80.34
2018-04-29T07:02:37.233Z,80.98
2018-04-29T07:05:05.657Z,81.48
2018-04-29T07:07:34.063Z,82.90
2018-04-29T07:10:03.235Z,83.82
2018-04-29T07:12:31.710Z,84.17
2018-04-29T07:15:00.094Z,84.51
2018-04-29T07:17:28.534Z,84.05
2018-04-29T07:19:57.831Z,82.85
2018-04-29T07:22:26.239Z,84.76
2018-04-29T07:24:54.685Z,85.17
2018-04-29T07:27:23.862Z,83.53
2018-04-29T07:29:53.133Z,80.53
2018-04-29T07:32:21.538Z,75.35
2018-04-29T07:34:50.909Z,75.43
2018-04-29T07:37:20.315Z,75.09
2018-04-29T07:39:49.714Z,74.96
2018-04-29T07:42:18.890Z,76.84
2018-04-29T07:44:47.294Z,77.44
2018-04-29T07:47:16.469Z,79.05
2018-04-29T07:49:44.878Z,79.70
2018-04-29T07:52:14.068Z,81.76
2018-04-29T07:54:42.475Z,81.35
2018-04-29T07:57:10.915Z,81.28
2018-04-29T07:59:39.326Z,82.29
2018-04-29T08:02:08.563Z,83.31
2018-04-29T08:04:37.047Z,79.95
2018-04-29T08:07:05.462Z,80.17
2018-04-29T08:09:33.890Z,82.30
2018-04-29T08:12:03.077Z,81.75
2018-04-29T08:14:32.277Z,82.25
2018-04-29T08:17:01.517Z,82.06
2018-04-29T08:19:29.906Z,83.08
2018-04-29T08:21:58.362Z,83.24
2018-04-29T08:24:26.791Z,83.08
2018-04-29T08:26:55.265Z,82.00
2018-04-29T08:29:23.694Z,83.21
2018-04-29T08:31:52.097Z,82.96
2018-04-29T08:34:21.336Z,79.18
2018-04-29T08:36:49.814Z,76.39
2018-04-29T08:39:18.250Z,73.57
2018-04-29T08:41:47.474Z,72.98
2018-04-29T08:44:16.612Z,72.13
2018-04-29T08:46:45.050Z,70.76
2018-04-29T08:49:15.074Z,73.17
2018-04-29T08:51:44.316Z,74.14
2018-04-29T08:54:12.855Z,74.87
2018-04-29T08:56:42.072Z,75.34
2018-04-29T08:59:10.529Z,73.39
2018-04-29T09:01:39.057Z,76.13
2018-04-29T09:04:07.425Z,72.27
2018-04-29T09:06:35.826Z,73.62
2018-04-29T09:09:04.998Z,74.83
2018-04-29T09:11:34.163Z,72.34
2018-04-29T09:14:02.598Z,72.76
2018-04-29T09:16:31.759Z,70.42
2018-04-29T09:19:00.213Z,73.15
2018-04-29T09:21:28.632Z,68.59
2018-04-29T09:23:57.018Z,71.80
2018-04-29T09:26:25.488Z,66.24
2018-04-29T09:28:54.668Z,63.59
2018-04-29T09:31:23.111Z,58.77
2018-04-29T09:33:52.295Z,55.99
2018-04-29T09:36:20.711Z,54.40
2018-04-29T09:38:49.137Z,53.06
2018-04-29T09:41:18.299Z,53.63
2018-04-29T09:43:46.688Z,47.79
2018-04-29T09:46:15.069Z,48.16
2018-04-29T09:48:43.566Z,48.02
2018-04-29T09:51:11.956Z,44.68
2018-04-29T09:53:40.391Z,50.99
2018-04-29T09:56:09.569Z,49.58
2018-04-29T09:58:37.988Z,51.57
2018-04-29T10:01:12.641Z,50.78
2018-04-29T10:03:41.794Z,51.77
2018-04-29T10:06:10.194Z,52.57
2018-04-29T10:08:39.378Z,50.25
2018-04-29T10:11:07.769Z,53.31
2018-04-29T10:13:36.157Z,57.39
2018-04-29T10:16:05.393Z,57.01
2018-04-29T10:18:33.841Z,56.06
2018-04-29T10:21:03.047Z,56.38
2018-04-29T10:23:32.256Z,57.66
2018-04-29T10:26:01.451Z,56.62
2018-04-29T10:28:30.630Z,56.77
2018-04-29T10:30:59.043Z,57.95
2018-04-29T10:33:28.216Z,59.72
2018-04-29T10:35:56.645Z,58.94
2018-04-29T10:38:25.027Z,62.48
2018-04-29T10:40:53.429Z,61.63
2018-04-29T10:43:21.821Z,62.65
2018-04-29T10:45:50.991Z,58.71
2018-04-29T10:48:19.414Z,60.37
2018-04-29T10:50:47.868Z,58.36
2018-04-29T10:53:18.347Z,57.14
2018-04-29T10:55:46.758Z,56.80
2018-04-29T10:58:15.952Z,56.85
2018-04-29T11:00:45.124Z,58.74
2018-04-29T11:03:13.525Z,55.33
2018-04-29T11:05:41.976Z,54.80
2018-04-29T11:08:10.383Z,58.38
2018-04-29T11:10:38.794Z,56.21
2018-04-29T11:13:07.930Z,56.04
2018-04-29T11:15:36.395Z,56.09
2018-04-29T11:18:04.799Z,56.83
2018-04-29T11:20:33.235Z,57.17
2018-04-29T11:23:01.668Z,58.29
2018-04-29T11:25:30.085Z,61.72
2018-04-29T11:27:58.471Z,61.66
2018-04-29T11:30:26.861Z,64.08
2018-04-29T11:32:55.245Z,64.39
2018-04-29T11:35:23.718Z,70.97
2018-04-29T11:37:52.109Z,71.32
2018-04-29T11:40:20.588Z,70.06
2018-04-29T11:42:48.922Z,73.00
2018-04-29T11:45:17.330Z,71.59
2018-04-29T11:47:45.755Z,69.12
2018-04-29T11:50:14.163Z,69.76
2018-04-29T11:52:42.569Z,66.17
2018-04-29T11:55:10.944Z,68.21
2018-04-29T11:57:39.393Z,66.55
2018-04-29T12:00:07.775Z,61.26
2018-04-29T12:02:37.055Z,61.66
2018-04-29T12:05:05.345Z,58.50
2018-04-29T12:07:33.743Z,57.99
2018-04-29T12:10:02.897Z,52.90
2018-04-29T12:12:31.266Z,52.39
2018-04-29T12:14:59.681Z,52.55
2018-04-29T12:17:28.062Z,53.21
2018-04-29T12:19:56.469Z,52.89
2018-04-29T12:22:24.901Z,51.54
2018-04-29T12:24:53.301Z,52.65
2018-04-29T12:27:21.720Z,49.33
2018-04-29T12:29:50.098Z,47.31
2018-04-29T12:32:18.481Z,48.24
2018-04-29T12:34:46.951Z,47.90
2018-04-29T12:37:15.377Z,46.90
2018-04-29T12:39:44.609Z,48.41
2018-04-29T12:42:13.017Z,49.79
2018-04-29T12:44:41.404Z,49.32
2018-04-29T12:47:10.579Z,51.74
2018-04-29T12:49:38.970Z,49.75
2018-04-29T12:52:07.395Z,48.04
2018-04-29T12:54:35.804Z,48.12
2018-04-29T12:57:04.962Z,47.32
2018-04-29T12:59:33.450Z,48.52
2018-04-29T13:02:01.940Z,47.38
2018-04-29T13:04:30.345Z,47.41
2018-04-29T13:06:59.521Z,45.29
2018-04-29T13:09:27.931Z,44.45
2018-04-29T13:11:57.202Z,46.60
2018-04-29T13:14:25.601Z,45.62
2018-04-29T13:16:54.009Z,44.23
2018-04-29T13:19:23.237Z,43.48
2018-04-29T13:21:51.789Z,44.34
2018-04-29T13:24:20.168Z,44.01
2018-04-29T13:26:49.343Z,43.97
2018-04-29T13:29:17.747Z,45.20
2018-04-29T13:31:46.153Z,45.47
2018-04-29T13:34:15.291Z,44.14
2018-04-29T13:36:43.712Z,46.48
2018-04-29T13:39:12.105Z,45.95
2018-04-29T13:41:41.258Z,48.79
2018-04-29T13:44:09.632Z,48.82
2018-04-29T13:46:38.012Z,48.61
2018-04-29T13:49:06.397Z,46.53
2018-04-29T13:51:34.820Z,43.88
2018-04-29T13:54:03.247Z,45.52
2018-04-29T13:56:32.425Z,42.45
2018-04-29T13:59:00.777Z,44.42
2018-04-29T14:01:29.161Z,47.74
2018-04-29T14:03:57.590Z,48.97
2018-04-29T14:06:26.732Z,50.13
2018-04-29T14:08:55.109Z,50.08
2018-04-29T14:11:23.501Z,50.31
2018-04-29T14:13:51.893Z,49.27
2018-04-29T14:16:20.307Z,50.00
2018-04-29T14:18:48.698Z,51.02
2018-04-29T14:21:17.846Z,51.86
2018-04-29T14:23:46.257Z,53.91
2018-04-29T14:26:14.666Z,53.64
2018-04-29T14:28:43.917Z,54.49
2018-04-29T14:31:12.332Z,54.34
2018-04-29T14:33:40.699Z,54.76
2018-04-29T14:36:09.838Z,57.12
2018-04-29T14:38:39.048Z,61.24
2018-04-29T14:41:07.438Z,63.50
2018-04-29T14:43:35.835Z,61.50
2018-04-29T14:46:04.230Z,59.90
2018-04-29T14:48:32.610Z,60.93
2018-04-29T14:51:01.069Z,59.02
2018-04-29T14:53:29.479Z,60.29
2018-04-29T14:55:57.915Z,60.90
2018-04-29T14:58:26.260Z,63.24
2018-04-29T15:00:55.419Z,60.70
2018-04-29T15:03:23.794Z,61.58
2018-04-29T15:05:53.030Z,61.86
2018-04-29T15:08:22.202Z,60.69
2018-04-29T15:10:50.607Z,62.31
2018-04-29T15:13:19.000Z,61.47
2018-04-29T15:15:47.385Z,61.36
2018-04-29T15:18:33.551Z,60.43
2018-04-29T15:21:01.936Z,57.97
2018-04-29T15:23:30.326Z,57.72
2018-04-29T15:25:58.678Z,56.78
2018-04-29T15:28:27.854Z,58.21
2018-04-29T15:30:56.223Z,56.55
2018-04-29T15:33:24.612Z,55.74
2018-04-29T15:35:53.006Z,55.21
2018-04-29T15:38:21.391Z,56.51
2018-04-29T15:40:50.560Z,53.96
2018-04-29T15:43:18.945Z,53.21
2018-04-29T15:45:47.330Z,54.45
2018-04-29T15:48:16.487Z,57.35
2018-04-29T15:50:45.807Z,57.23
2018-04-29T15:53:14.381Z,58.76
2018-04-29T15:55:43.606Z,60.19
2018-04-29T15:58:11.979Z,58.58
2018-04-29T16:00:40.594Z,57.84
2018-04-29T16:03:09.089Z,59.68
2018-04-29T16:05:37.483Z,55.63
2018-04-29T16:08:05.926Z,55.16
2018-04-29T16:10:34.347Z,55.13
2018-04-29T16:13:02.773Z,53.36
2018-04-29T16:15:32.099Z,52.00
2018-04-29T16:18:00.498Z,51.66
2018-04-29T16:20:28.890Z,50.97
2018-04-29T16:22:57.397Z,51.62
2018-04-29T16:25:25.831Z,53.46
2018-04-29T16:27:54.292Z,54.22
2018-04-29T16:30:23.463Z,55.28
2018-04-29T16:32:52.606Z,56.39
2018-04-29T16:35:20.989Z,55.65
2018-04-29T16:37:49.402Z,53.83
2018-04-29T16:40:17.818Z,54.95
2018-04-29T16:42:46.213Z,54.46
2018-04-29T16:45:14.726Z,56.48
2018-04-29T16:47:43.877Z,57.45
2018-04-29T16:50:13.093Z,59.29
2018-04-29T16:52:41.482Z,58.15
2018-04-29T16:55:09.929Z,59.00
2018-04-29T16:57:38.349Z,58.21
2018-04-29T17:00:06.754Z,59.99
2018-04-29T17:02:35.901Z,57.53
2018-04-29T17:05:04.298Z,60.82
2018-04-29T17:07:32.707Z,60.92
2018-04-29T17:10:01.098Z,61.89
2018-04-29T17:12:30.296Z,62.58
2018-04-29T17:14:58.701Z,64.71
2018-04-29T17:17:27.861Z,64.33
2018-04-29T17:19:56.255Z,65.25
2018-04-29T17:22:24.664Z,65.45
2018-04-29T17:24:53.825Z,64.86
2018-04-29T17:27:22.241Z,64.43
2018-04-29T17:29:51.421Z,64.50
2018-04-29T17:32:19.865Z,64.96
2018-04-29T17:34:48.391Z,66.03
2018-04-29T17:37:16.810Z,65.66
2018-04-29T17:39:45.183Z,65.49
2018-04-29T17:42:14.332Z,65.85
2018-04-29T17:44:42.782Z,65.16
2018-04-29T17:47:11.174Z,66.78
2018-04-29T17:49:39.617Z,66.66
2018-04-29T17:52:08.030Z,67.90
2018-04-29T17:54:36.452Z,68.34
2018-04-29T17:57:04.915Z,69.12
2018-04-29T17:59:33.281Z,70.13
2018-04-29T18:02:01.758Z,70.61
2018-04-29T18:04:30.913Z,70.94
2018-04-29T18:06:59.309Z,71.30
2018-04-29T18:09:27.727Z,71.55
2018-04-29T18:11:56.921Z,72.00
2018-04-29T18:14:26.105Z,72.47
2018-04-29T18:16:54.532Z,73.23
2018-04-29T18:19:22.915Z,73.32
2018-04-29T18:21:51.305Z,73.45
2018-04-29T18:24:19.710Z,73.29
2018-04-29T18:26:48.099Z,73.96
2018-04-29T18:29:16.484Z,73.83
2018-04-29T18:31:44.905Z,74.01
2018-04-29T18:34:13.366Z,73.73
2018-04-29T18:36:41.751Z,73.17
2018-04-29T18:39:10.170Z,72.92
2018-04-29T18:41:39.329Z,72.55
2018-04-29T18:44:07.826Z,72.48
2018-04-29T18:46:36.314Z,71.29
2018-04-29T18:49:04.747Z,71.24
2018-04-29T18:51:33.322Z,71.01
2018-04-29T18:54:01.660Z,70.99
2018-04-29T18:56:30.103Z,70.52
2018-04-29T18:58:58.869Z,69.86
2018-04-29T19:01:27.301Z,70.61
2018-04-29T19:03:55.723Z,69.59
2018-04-29T19:06:24.153Z,68.65
2018-04-29T19:08:52.605Z,68.62
2018-04-29T19:11:21.908Z,69.73
2018-04-29T19:13:51.063Z,67.09
2018-04-29T19:16:19.480Z,66.39
2018-04-29T19:18:48.098Z,65.36
2018-04-29T19:21:16.516Z,65.92
2018-04-29T19:23:44.915Z,64.57
2018-04-29T19:26:13.791Z,64.82
2018-04-29T19:28:42.226Z,64.86
2018-04-29T19:31:11.402Z,64.39
2018-04-29T19:33:39.805Z,63.70
2018-04-29T19:36:08.980Z,65.07
2018-04-29T19:38:37.367Z,64.34
2018-04-29T19:41:05.797Z,63.78
2018-04-29T19:43:34.175Z,63.69
2018-04-29T19:46:02.554Z,62.40
2018-04-29T19:48:30.946Z,62.79
2018-04-29T19:50:59.365Z,62.71
2018-04-29T19:53:27.883Z,63.19
2018-04-29T19:55:56.289Z,63.20
2018-04-29T19:58:24.720Z,63.30
2018-04-29T20:00:53.121Z,63.54
2018-04-29T20:03:21.526Z,63.36
2018-04-29T20:05:50.673Z,64.15
2018-04-29T20:08:19.187Z,64.67
2018-04-29T20:10:47.563Z,66.05
2018-04-29T20:13:15.984Z,65.95
2018-04-29T20:15:45.181Z,66.50
2018-04-29T20:18:14.309Z,66.96
2018-04-29T20:20:42.726Z,66.17
2018-04-29T20:23:11.130Z,66.77
2018-04-29T20:25:39.594Z,67.62
2018-04-29T20:28:07.977Z,68.36
2018-04-29T20:30:36.397Z,68.53
2018-04-29T20:33:05.572Z,68.49
2018-04-29T20:35:33.973Z,68.06
2018-04-29T20:38:02.470Z,68.70
2018-04-29T20:40:30.786Z,68.99
2018-04-29T20:42:59.227Z,69.41
2018-04-29T20:45:27.603Z,70.07
2018-04-29T20:47:56.114Z,69.68
2018-04-29T20:50:25.275Z,69.60
2018-04-29T20:52:53.658Z,69.42
2018-04-29T20:55:22.137Z,69.84
2018-04-29T20:57:51.285Z,70.17
2018-04-29T21:00:20.446Z,69.86
2018-04-29T21:02:48.828Z,70.84
2018-04-29T21:05:17.202Z,70.66
2018-04-29T21:07:45.620Z,71.69
2018-04-29T21:10:14.093Z,72.12
2018-04-29T21:12:42.481Z,72.36
2018-04-29T21:15:10.890Z,72.93
2018-04-29T21:17:39.282Z,73.18
2018-04-29T21:20:07.679Z,73.49
2018-04-29T21:22:36.098Z,74.93
2018-04-29T21:25:04.469Z,74.19
2018-04-29T21:27:32.910Z,74.57
2018-04-29T21:30:01.318Z,74.66
2018-04-29T21:32:29.751Z,74.89
2018-04-29T21:34:58.161Z,74.90
2018-04-29T21:37:26.574Z,75.05
2018-04-29T21:39:55.063Z,75.89
2018-04-29T21:42:23.461Z,75.65
2018-04-29T21:44:51.895Z,76.40
2018-04-29T21:47:21.954Z,76.33
2018-04-29T21:49:50.378Z,75.51
2018-04-29T21:52:19.530Z,74.74
2018-04-29T21:54:47.937Z,73.75
2018-04-29T21:57:16.345Z,72.28
2018-04-29T21:59:44.783Z,72.36
2018-04-29T22:02:13.236Z,72.18
2018-04-29T22:04:42.448Z,72.29
2018-04-29T22:07:11.139Z,72.04
2018-04-29T22:09:39.572Z,72.28
2018-04-29T22:12:08.023Z,72.85
2018-04-29T22:14:36.435Z,74.99
2018-04-29T22:17:04.829Z,76.20
2018-04-29T22:19:33.261Z,76.96
2018-04-29T22:22:01.677Z,80.87
2018-04-29T22:24:30.135Z,82.47
2018-04-29T22:26:58.543Z,83.92
2018-04-29T22:29:26.919Z,86.00
2018-04-29T22:31:55.326Z,86.12
2018-04-29T22:34:23.733Z,85.44
2018-04-29T22:36:53.101Z,86.14
2018-04-29T22:39:21.490Z,86.64
2018-04-29T22:41:51.448Z,87.62
2018-04-29T22:44:20.624Z,88.08
2018-04-29T22:46:49.003Z,87.01
2018-04-29T22:49:17.371Z,87.26
2018-04-29T22:51:45.857Z,88.42
2018-04-29T22:54:14.271Z,88.06
2018-04-29T22:56:42.686Z,89.08
2018-04-29T22:59:11.124Z,89.05
2018-04-29T23:01:39.519Z,89.08
2018-04-29T23:04:07.906Z,89.34
2018-04-29T23:06:36.298Z,88.71
2018-04-29T23:09:06.217Z,89.24
2018-04-29T23:11:35.511Z,89.67
2018-04-29T23:14:04.666Z,89.54
2018-04-29T23:16:33.050Z,90.08
2018-04-29T23:19:01.446Z,89.45
2018-04-29T23:21:29.831Z,89.18
2018-04-29T23:23:58.962Z,89.78
2018-04-29T23:26:28.125Z,89.43
2018-04-29T23:28:56.591Z,89.26
2018-04-29T23:31:24.999Z,89.28
2018-04-29T23:33:53.369Z,89.25
2018-04-29T23:36:21.780Z,90.65
2018-04-29T23:38:50.166Z,90.30
2018-04-29T23:41:18.553Z,90.64
2018-04-29T23:43:46.941Z,90.44
2018-04-29T23:46:16.093Z,91.05
2018-04-29T23:48:44.545Z,91.97
2018-04-29T23:51:13.673Z,92.24
2018-04-29T23:53:42.078Z,92.57
2018-04-29T23:56:10.454Z,92.55
2018-04-29T23:58:38.833Z,92.77
